Weather at John Wayne Airport-Orange County Airport

Public forecast

Using degrees Fahrenheit for public forecast. Weather courtesy of forecast.io.

Current aviation weather report (METAR) for John Wayne Airport-Orange County Airport

Retrieved 2020/09/21 15:53 UTC (16 minutes ago):

KSNA 211553Z 15003KT 7SM BKN015 21/15 A2997 RMK AO2 SLP146 T02060150

Aviation forecast (TAF) for John Wayne Airport-Orange County Airport

Retrieved 2020/09/21 12:22 UTC (4 hours ago):

TAF KSNA 211120Z 2112/2212 15003KT P6SM OVC013 FM211600 VRB04KT P6SM FEW013 FM212000 22010KT P6SM SKC FM220300 VRB04KT P6SM BKN011